Time;durP1;ratioP1;P1;durP2;ratioP2;P2;SDS_P1;SDS_P2;PMS_P1;PMS_P2;Temp;Humidity;BMP_temperature;BMP_pressure;BME280_temperature;BME280_humidity;BME280_pressure;Samples;Min_cycle;Max_cycle;Signal;HPM_P1;HPM_P2
2021/11/16 00:01:20;;;;;;;18.55;14.32;;;;;;;9.56;62.22;100796.44;5031203;28;20421;-74
2021/11/16 00:03:46;;;;;;;17.70;13.73;;;;;;;9.59;62.41;100797.13;5031024;28;20025;-74
2021/11/16 00:06:11;;;;;;;20.33;14.40;;;;;;;9.62;61.98;100807.41;5031150;28;20044;-74
2021/11/16 00:08:36;;;;;;;21.83;15.55;;;;;;;9.32;62.09;100745.97;5030861;28;20091;-74
2021/11/16 00:11:03;;;;;;;22.08;15.73;;;;;;;9.24;62.25;100722.13;5013226;28;20029;-74
2021/11/16 00:13:28;;;;;;;18.25;14.45;;;;;;;9.73;61.51;100789.63;5031179;28;20021;-74
2021/11/16 00:15:55;;;;;;;19.58;15.13;;;;;;;9.78;61.88;100791.84;5013484;28;20125;-74
2021/11/16 00:18:26;;;;;;;20.92;16.05;;;;;;;9.84;61.53;100786.84;5031111;28;20026;-74
2021/11/16 00:20:51;;;;;;;22.67;15.88;;;;;;;9.33;61.38;100707.28;5031080;28;20033;-74
2021/11/16 00:23:18;;;;;;;18.52;14.32;;;;;;;9.82;61.63;100777.41;5031097;28;20033;-74
2021/11/16 00:25:46;;;;;;;19.38;14.43;;;;;;;9.85;61.62;100772.69;5030951;28;20029;-74
2021/11/16 00:28:12;;;;;;;20.90;15.63;;;;;;;9.67;61.61;100745.38;5031020;28;20112;-74
2021/11/16 00:30:39;;;;;;;22.67;15.82;;;;;;;9.88;61.48;100769.75;5031075;28;20057;-74
2021/11/16 00:33:05;;;;;;;20.50;14.45;;;;;;;9.88;62.05;100771.56;5031520;28;20403;-74
2021/11/16 00:35:31;;;;;;;19.48;14.23;;;;;;;9.89;61.30;100778.50;5034626;28;20054;-74
2021/11/16 00:37:56;;;;;;;21.25;15.63;;;;;;;9.53;61.40;100715.00;5034843;28;20033;-74
2021/11/16 00:40:22;;;;;;;20.05;13.90;;;;;;;9.90;61.54;100766.97;5034855;28;20026;-74
2021/11/16 00:42:49;;;;;;;19.30;13.65;;;;;;;9.91;61.38;100766.00;5034736;28;20111;-74
2021/11/16 00:45:16;;;;;;;20.65;14.07;;;;;;;9.93;61.28;100765.84;5034771;28;20033;-74
2021/11/16 00:47:42;;;;;;;17.67;12.95;;;;;;;9.95;61.51;100788.47;5034449;28;20040;-74
2021/11/16 00:50:09;;;;;;;16.85;13.02;;;;;;;9.85;61.16;100753.38;5034415;28;20508;-74
2021/11/16 00:52:35;;;;;;;19.40;14.60;;;;;;;9.69;61.57;100727.59;5034426;28;20037;-74
2021/11/16 00:55:00;;;;;;;22.88;15.93;;;;;;;9.92;60.86;100764.19;5034593;28;20108;-74
2021/11/16 00:57:26;;;;;;;19.13;14.32;;;;;;;9.98;61.12;100769.72;5034354;28;20522;-74
2021/11/16 00:59:51;;;;;;;20.35;13.90;;;;;;;9.79;61.30;100733.69;5034516;28;20029;-74
2021/11/16 01:02:17;;;;;;;19.88;12.75;;;;;;;10.04;60.80;100769.13;5034373;28;20029;-74
2021/11/16 01:04:51;;;;;;;19.52;12.90;;;;;;;10.04;60.98;100765.66;5034056;28;20022;-74
2021/11/16 01:07:18;;;;;;;18.08;12.57;;;;;;;10.05;61.24;100767.34;5034079;28;20088;-74
2021/11/16 01:09:44;;;;;;;19.67;12.25;;;;;;;10.06;60.90;100767.19;5034331;28;20078;-74
2021/11/16 01:12:11;;;;;;;18.35;12.85;;;;;;;10.08;61.05;100767.03;5034481;28;20476;-74
2021/11/16 01:14:36;;;;;;;18.63;11.73;;;;;;;10.12;60.91;100771.88;5034189;28;20022;-74
2021/11/16 01:17:02;;;;;;;18.35;12.48;;;;;;;10.14;60.79;100772.56;5034158;28;20392;-74
2021/11/16 01:19:27;;;;;;;16.85;12.25;;;;;;;10.14;60.76;100772.56;5016177;28;20056;-74
2021/11/16 01:21:53;;;;;;;18.70;12.05;;;;;;;10.14;60.51;100769.94;5033914;28;20033;-74
2021/11/16 01:24:19;;;;;;;17.50;11.95;;;;;;;10.17;60.51;100764.38;5034092;28;20029;-74
2021/11/16 01:26:46;;;;;;;18.60;11.70;;;;;;;10.19;60.60;100761.56;5033857;28;20041;-74
2021/11/16 01:29:13;;;;;;;20.70;12.02;;;;;;;10.11;60.53;100759.66;5034200;28;20029;-74
2021/11/16 01:31:38;;;;;;;19.23;12.40;;;;;;;10.17;60.79;100764.38;5033903;28;20037;-74
2021/11/16 01:34:06;;;;;;;20.40;12.88;;;;;;;9.77;60.34;100700.50;5033648;28;20025;-74
2021/11/16 01:36:32;;;;;;;19.00;13.00;;;;;;;9.78;60.29;100710.91;5034033;28;20022;-74
2021/11/16 01:38:59;;;;;;;18.05;13.10;;;;;;;10.21;60.75;100769.38;5033852;28;20021;-74
2021/11/16 01:41:26;;;;;;;18.63;11.90;;;;;;;10.23;60.38;100778.81;5033824;28;20509;-74
2021/11/16 01:43:51;;;;;;;18.88;12.05;;;;;;;10.25;60.77;100765.47;5033476;28;20028;-74
2021/11/16 01:46:18;;;;;;;20.15;13.30;;;;;;;10.18;60.77;100754.63;5032364;28;20033;-74
2021/11/16 01:48:48;;;;;;;17.15;11.68;;;;;;;10.26;60.17;100765.31;5033386;28;20031;-74
2021/11/16 01:51:15;;;;;;;15.13;10.75;;;;;;;9.93;60.10;100715.72;5033423;28;20534;-74
2021/11/16 01:53:41;;;;;;;15.48;11.75;;;;;;;10.24;60.66;100769.09;5033351;28;20026;-74
2021/11/16 01:56:08;;;;;;;15.50;10.77;;;;;;;10.14;60.99;100763.81;5033143;28;20028;-74
2021/11/16 01:58:33;;;;;;;14.68;10.82;;;;;;;9.79;60.58;100715.22;5033223;28;20021;-74
2021/11/16 02:01:02;;;;;;;12.75;9.32;;;;;;;10.12;60.53;100761.34;5033179;28;20087;-74
2021/11/16 02:03:29;;;;;;;11.43;8.60;;;;;;;10.17;61.08;100769.63;5015217;28;20066;-74
2021/11/16 02:05:57;;;;;;;14.65;10.02;;;;;;;10.18;60.74;100766.03;5033102;28;20029;-74
2021/11/16 02:08:24;;;;;;;13.38;10.30;;;;;;;10.21;60.88;100766.75;5033076;28;20113;-74
2021/11/16 02:10:53;;;;;;;16.73;10.85;;;;;;;9.90;60.31;100713.38;5033003;28;20061;-74
2021/11/16 02:13:22;;;;;;;14.30;10.00;;;;;;;10.23;60.65;100760.34;5033111;28;20028;-74
2021/11/16 02:15:49;;;;;;;14.93;11.00;;;;;;;10.25;60.67;100760.19;5032909;28;20425;-74
2021/11/16 02:18:15;;;;;;;13.93;9.30;;;;;;;10.24;60.46;100759.38;5032911;28;20021;-74
2021/11/16 02:20:46;;;;;;;13.35;10.70;;;;;;;10.24;60.15;100754.09;5032842;28;20026;-74
2021/11/16 02:23:12;;;;;;;16.17;10.55;;;;;;;9.97;60.24;100723.19;5032946;28;20021;-74
2021/11/16 02:25:37;;;;;;;15.80;10.70;;;;;;;9.96;60.90;100721.53;5032756;28;20560;-74
2021/11/16 02:28:04;;;;;;;15.88;11.52;;;;;;;10.16;60.88;100754.78;5032626;28;20030;-74
2021/11/16 02:30:30;;;;;;;15.63;12.00;;;;;;;10.14;60.90;100756.75;5032756;28;20029;-74
2021/11/16 02:32:55;;;;;;;14.25;10.27;;;;;;;10.10;61.03;100754.53;5032600;28;20410;-74
2021/11/16 02:35:27;;;;;;;13.48;10.07;;;;;;;10.08;60.81;100756.50;5032477;28;20053;-74
2021/11/16 02:37:54;;;;;;;13.93;10.60;;;;;;;10.04;60.71;100750.66;5032669;28;20104;-74
2021/11/16 02:40:20;;;;;;;16.83;14.85;;;;;;;9.88;60.96;100727.53;5032571;28;20076;-74
2021/11/16 02:42:46;;;;;;;15.60;12.70;;;;;;;10.00;61.50;100757.22;5032451;28;20049;-74
2021/11/16 02:45:13;;;;;;;16.80;11.82;;;;;;;9.97;61.14;100751.41;5032260;28;20041;-74
2021/11/16 02:47:39;;;;;;;16.15;12.65;;;;;;;10.00;61.39;100746.66;5030944;28;20510;-74
2021/11/16 02:50:06;;;;;;;15.05;12.85;;;;;;;9.74;61.22;100693.72;5014553;28;20041;-74
2021/11/16 02:52:32;;;;;;;15.65;11.15;;;;;;;10.06;61.27;100740.81;5032459;28;20519;-74
2021/11/16 02:54:57;;;;;;;16.83;11.32;;;;;;;9.88;61.30;100697.69;5032301;28;20105;-74
2021/11/16 02:57:23;;;;;;;14.43;11.40;;;;;;;9.65;61.21;100670.81;5031802;28;20029;-74
2021/11/16 02:59:49;;;;;;;15.40;11.52;;;;;;;10.08;61.43;100741.50;5032194;28;20032;-74
2021/11/16 03:02:15;;;;;;;14.15;11.27;;;;;;;10.15;61.18;100745.22;5032211;28;20022;-74
2021/11/16 03:04:45;;;;;;;14.93;10.90;;;;;;;9.90;61.23;100714.22;5031994;28;20025;-74
2021/11/16 03:07:29;;;;;;;14.68;11.13;;;;;;;10.07;60.82;100747.75;5032185;28;20025;-74
2021/11/16 03:09:55;;;;;;;12.73;10.57;;;;;;;10.07;60.96;100739.00;5032010;28;20029;-74
2021/11/16 03:12:20;;;;;;;13.70;10.57;;;;;;;10.05;61.22;100739.13;5032269;28;20037;-74
2021/11/16 03:14:46;;;;;;;13.93;10.95;;;;;;;10.13;60.95;100741.06;5031991;28;20032;-74
2021/11/16 03:17:12;;;;;;;15.38;10.68;;;;;;;10.12;60.90;100734.09;5031884;28;20028;-74
2021/11/16 03:19:38;;;;;;;14.35;10.43;;;;;;;9.84;60.80;100705.06;5014142;28;20063;-74
2021/11/16 03:22:03;;;;;;;12.30;9.75;;;;;;;10.09;60.84;100742.31;5031565;28;20116;-74
2021/11/16 03:24:34;;;;;;;14.30;10.40;;;;;;;10.07;60.42;100737.19;5031850;28;20026;-74
2021/11/16 03:27:06;;;;;;;11.13;8.73;;;;;;;9.76;60.30;100686.50;5031685;28;20478;-74
2021/11/16 03:29:32;;;;;;;12.95;9.10;;;;;;;9.93;60.06;100718.38;5031784;28;20035;-74
2021/11/16 03:32:06;;;;;;;14.38;9.20;;;;;;;10.18;60.16;100752.81;5031690;28;20026;-74
2021/11/16 03:34:32;;;;;;;12.35;9.23;;;;;;;10.19;59.96;100754.50;5031505;28;20049;-74
2021/11/16 03:36:58;;;;;;;12.10;9.32;;;;;;;10.06;60.49;100742.59;5031421;28;20030;-74
2021/11/16 03:39:24;;;;;;;12.77;9.25;;;;;;;10.14;60.10;100743.53;5031597;28;20025;-74
2021/11/16 03:41:50;;;;;;;10.43;8.82;;;;;;;10.11;60.36;100749.13;5031463;28;20072;-74
2021/11/16 03:44:16;;;;;;;13.50;9.73;;;;;;;9.86;60.60;100705.75;5031365;28;20086;-74
2021/11/16 03:46:41;;;;;;;12.82;10.23;;;;;;;9.82;60.26;100714.94;5031323;28;20025;-74
2021/11/16 03:49:10;;;;;;;16.98;9.38;;;;;;;9.83;60.20;100698.13;5031517;28;20113;-74
2021/11/16 03:51:36;;;;;;;12.15;9.65;;;;;;;10.14;60.14;100753.28;5031403;28;20028;-74
2021/11/16 03:54:02;;;;;;;12.10;9.15;;;;;;;10.09;60.60;100742.31;5031408;28;20021;-74
2021/11/16 03:56:28;;;;;;;13.43;9.40;;;;;;;9.95;59.91;100722.53;5031265;28;20021;-74
2021/11/16 03:58:53;;;;;;;14.52;9.77;;;;;;;9.96;60.01;100721.53;5031306;28;20030;-74
2021/11/16 04:01:19;;;;;;;12.55;9.40;;;;;;;10.19;60.26;100756.31;5031144;28;20076;-74
2021/11/16 04:03:45;;;;;;;11.63;8.93;;;;;;;10.21;60.17;100754.38;5031166;28;20090;-74
2021/11/16 04:06:11;;;;;;;14.57;10.60;;;;;;;10.22;60.22;100753.41;5031118;28;20025;-74
2021/11/16 04:08:37;;;;;;;12.20;10.35;;;;;;;9.81;60.17;100678.97;5032620;28;20021;-74
2021/11/16 04:11:04;;;;;;;13.15;9.82;;;;;;;9.81;60.74;100697.44;5035097;28;20094;-74
2021/11/16 04:13:30;;;;;;;13.13;10.25;;;;;;;10.08;60.60;100736.22;5035167;28;20029;-74
2021/11/16 04:15:56;;;;;;;13.07;10.02;;;;;;;9.82;60.29;100683.28;5035029;28;20132;-74
2021/11/16 04:18:22;;;;;;;14.45;10.63;;;;;;;9.87;60.86;100691.59;5035526;28;20017;-74
2021/11/16 04:20:51;;;;;;;14.88;10.80;;;;;;;10.22;60.67;100747.28;5017390;28;20025;-74
2021/11/16 04:23:17;;;;;;;15.32;10.25;;;;;;;10.22;60.43;100755.22;5035280;28;20490;-74
2021/11/16 04:25:45;;;;;;;15.95;10.63;;;;;;;10.18;60.86;100747.56;5017380;28;20446;-74
2021/11/16 04:28:11;;;;;;;14.68;11.65;;;;;;;10.14;60.42;100732.97;5034947;28;20048;-74
2021/11/16 04:30:38;;;;;;;14.27;10.48;;;;;;;10.14;60.42;100726.88;5035028;28;20053;-74
2021/11/16 04:33:04;;;;;;;13.40;10.55;;;;;;;10.25;60.52;100747.84;5034826;28;20028;-74
2021/11/16 04:35:31;;;;;;;14.73;10.35;;;;;;;10.27;60.59;100745.03;5034634;28;20096;-74
2021/11/16 04:37:59;;;;;;;11.75;9.70;;;;;;;10.17;60.37;100729.22;5017107;28;20018;-74
2021/11/16 04:40:34;;;;;;;13.43;10.80;;;;;;;10.28;60.70;100742.25;5035014;28;20025;-74
2021/11/16 04:43:04;;;;;;;11.98;9.75;;;;;;;10.13;60.37;100726.03;5034731;28;20018;-74
2021/11/16 04:45:30;;;;;;;17.35;10.98;;;;;;;10.29;60.34;100757.13;5034779;28;20017;-74
2021/11/16 04:48:02;;;;;;;14.10;10.27;;;;;;;10.31;60.64;100754.34;5034630;28;20509;-74
2021/11/16 05:03:54;;;;;;;17.10;12.38;;;;;;;10.09;60.80;100742.31;5034507;28;20419;-74
2021/11/16 05:06:20;;;;;;;19.17;14.40;;;;;;;10.16;60.73;100751.31;5033907;28;20025;-74
2021/11/16 05:08:47;;;;;;;20.98;15.27;;;;;;;10.18;60.67;100750.19;5034220;28;20025;-74
2021/11/16 05:11:14;;;;;;;19.35;15.25;;;;;;;10.23;60.34;100748.94;5034329;28;20099;-74
2021/11/16 05:13:43;;;;;;;18.17;12.90;;;;;;;9.96;60.66;100708.34;5034117;28;20021;-74
2021/11/16 05:16:09;;;;;;;20.33;14.05;;;;;;;10.24;60.39;100756.72;5033856;28;20030;-74
2021/11/16 05:18:35;;;;;;;22.55;15.27;;;;;;;10.27;60.65;100751.16;5033604;28;20498;-74
2021/11/16 05:21:00;;;;;;;24.73;17.63;;;;;;;10.29;60.52;100758.94;5033688;28;20036;-74
2021/11/16 05:23:26;;;;;;;28.52;20.67;;;;;;;10.28;60.15;100758.09;5034106;28;20100;-74
2021/11/16 05:25:53;;;;;;;24.98;18.60;;;;;;;10.25;60.30;100755.75;5034073;28;20072;-74
2021/11/16 05:28:20;;;;;;;28.48;21.50;;;;;;;10.25;60.56;100768.13;5033796;28;20018;-74
2021/11/16 05:30:46;;;;;;;26.75;20.48;;;;;;;10.27;60.46;100767.00;5033971;28;20025;-74
2021/11/16 05:33:12;;;;;;;28.35;21.27;;;;;;;10.28;60.54;100770.47;5033995;28;20413;-74
2021/11/16 05:35:38;;;;;;;23.55;18.73;;;;;;;10.02;60.27;100722.75;5033558;28;20052;-74
2021/11/16 05:38:03;;;;;;;23.85;18.45;;;;;;;10.31;60.43;100780.72;5033833;28;20051;-74
2021/11/16 05:40:29;;;;;;;29.17;21.50;;;;;;;10.31;60.72;100780.72;5016144;28;20032;-74
2021/11/16 05:42:55;;;;;;;24.55;20.13;;;;;;;10.33;60.52;100786.69;5016067;28;20021;-74
2021/11/16 05:45:20;;;;;;;22.23;17.33;;;;;;;9.87;60.35;100717.13;5015595;28;20030;-74
2021/11/16 05:47:46;;;;;;;25.38;18.85;;;;;;;10.13;60.65;100748.97;5033411;28;20026;-74
2021/11/16 05:50:13;;;;;;;26.48;22.20;;;;;;;10.29;60.38;100778.22;5033481;28;20034;-74
2021/11/16 05:52:39;;;;;;;26.70;19.98;;;;;;;10.03;60.81;100741.09;5033333;28;20041;-74
2021/11/16 05:55:09;;;;;;;21.23;18.30;;;;;;;10.17;60.93;100755.63;5033416;28;20044;-74
2021/11/16 05:57:36;;;;;;;25.73;18.85;;;;;;;10.35;60.76;100793.50;5033098;28;20490;-74
2021/11/16 06:00:04;;;;;;;23.40;18.67;;;;;;;10.39;60.46;100786.09;5033328;28;20025;-74
2021/11/16 06:02:29;;;;;;;23.13;16.92;;;;;;;10.40;60.30;100795.69;5033233;28;20117;-74
2021/11/16 06:04:55;;;;;;;19.52;14.18;;;;;;;10.15;60.05;100761.03;5032995;28;20108;-74
2021/11/16 06:07:21;;;;;;;21.42;16.33;;;;;;;10.38;60.19;100787.91;5033022;28;20457;-74
2021/11/16 06:09:46;;;;;;;23.15;16.77;;;;;;;10.36;60.05;100799.59;5033199;28;20017;-74
2021/11/16 06:12:12;;;;;;;24.95;17.08;;;;;;;10.37;60.17;100799.44;5032936;28;20475;-74
2021/11/16 06:14:38;;;;;;;24.45;17.95;;;;;;;10.40;60.16;100793.06;5033072;28;20048;-74
2021/11/16 06:17:04;;;;;;;25.35;20.85;;;;;;;10.41;59.68;100786.81;5032895;28;20025;-74
2021/11/16 06:19:35;;;;;;;27.70;20.50;;;;;;;10.39;60.41;100780.81;5032622;28;20022;-74
2021/11/16 06:22:01;;;;;;;23.15;18.10;;;;;;;10.34;60.11;100765.44;5032650;28;20028;-74
2021/11/16 06:24:26;;;;;;;23.98;16.33;;;;;;;10.46;60.07;100781.94;5032636;28;20025;-74
2021/11/16 06:26:52;;;;;;;25.42;16.33;;;;;;;10.44;60.03;100779.44;5032330;28;20414;-74
2021/11/16 06:29:17;;;;;;;28.48;19.63;;;;;;;10.49;60.09;100792.19;5032590;28;20110;-74
2021/11/16 06:31:43;;;;;;;27.73;19.13;;;;;;;10.48;59.79;100777.34;5031716;28;20418;-74
2021/11/16 06:34:09;;;;;;;24.63;16.58;;;;;;;10.27;59.88;100748.50;5032454;28;20028;-74
2021/11/16 06:36:38;;;;;;;22.13;16.63;;;;;;;10.48;59.49;100791.38;5032455;28;20479;-74
2021/11/16 06:39:20;;;;;;;24.30;18.00;;;;;;;10.52;59.85;100788.44;5032339;28;20057;-74
2021/11/16 06:41:47;;;;;;;25.90;17.40;;;;;;;10.51;59.72;100803.44;5032419;28;20017;-74
2021/11/16 06:44:15;;;;;;;26.75;16.58;;;;;;;10.56;59.80;100788.00;5032487;28;20040;-74
2021/11/16 06:46:42;;;;;;;22.52;15.57;;;;;;;10.09;59.39;100724.69;5032046;28;20026;-74
2021/11/16 06:49:09;;;;;;;19.80;14.27;;;;;;;10.55;59.73;100807.47;5032284;28;20021;-74
2021/11/16 06:51:37;;;;;;;18.70;13.45;;;;;;;10.56;59.23;100795.91;5044910;28;20217;-74
2021/11/16 06:54:16;;;;;;;12.93;11.13;;;;;;;10.56;59.54;100780.06;5051498;28;20025;-74
2021/11/16 06:56:42;;;;;;;17.27;12.40;;;;;;;10.59;59.71;100789.50;5046767;28;20006;-74
2021/11/16 06:59:08;;;;;;;19.60;14.27;;;;;;;10.63;59.18;100791.72;5032297;28;20021;-74
2021/11/16 07:01:37;;;;;;;21.40;15.45;;;;;;;10.58;59.80;100782.56;5053045;28;20362;-74
2021/11/16 07:04:08;;;;;;;19.77;14.65;;;;;;;10.65;59.44;100805.59;5033604;28;20040;-74
2021/11/16 07:06:35;;;;;;;17.98;13.80;;;;;;;10.66;59.81;100801.16;5051831;28;20102;-74
2021/11/16 07:09:00;;;;;;;21.83;15.63;;;;;;;10.40;59.42;100769.28;5033881;28;20029;-74
2021/11/16 07:11:27;;;;;;;23.55;17.30;;;;;;;10.31;59.52;100760.44;5050340;28;20023;-74
2021/11/16 07:14:07;;;;;;;28.10;16.63;;;;;;;10.61;59.42;100801.59;5049778;28;20032;-74
2021/11/16 07:16:35;;;;;;;19.95;16.25;;;;;;;10.67;59.21;100803.63;5051181;28;20036;-74
2021/11/16 07:19:02;;;;;;;24.42;16.27;;;;;;;10.62;59.51;100795.31;5051403;28;20017;-74
2021/11/16 07:21:42;;;;;;;22.02;15.10;;;;;;;10.39;59.17;100760.53;5051487;28;20028;-74
2021/11/16 07:24:11;;;;;;;24.42;15.45;;;;;;;10.34;59.65;100759.31;5033215;28;20086;-74
2021/11/16 07:26:42;;;;;;;23.55;14.77;;;;;;;10.68;59.68;100807.09;5032658;28;20090;-74
2021/11/16 07:29:47;;;;;;;19.35;14.20;;;;;;;10.63;59.93;100804.91;5050624;28;20024;-74
2021/11/16 07:32:19;;;;;;;17.73;12.73;;;;;;;10.59;60.30;100805.34;5067370;28;20039;-74
2021/11/16 07:34:46;;;;;;;17.98;12.48;;;;;;;10.22;59.91;100755.22;5060058;28;20040;-74
2021/11/16 07:37:18;;;;;;;16.65;10.90;;;;;;;10.58;59.88;100808.97;5051142;28;20032;-74
2021/11/16 07:39:57;;;;;;;14.88;12.23;;;;;;;10.57;60.38;100812.59;5049954;28;20506;-74
2021/11/16 07:42:26;;;;;;;21.17;14.10;;;;;;;10.53;60.33;100812.06;5043069;28;20514;-74
2021/11/16 07:45:13;;;;;;;17.02;14.15;;;;;;;10.47;60.44;100805.56;5050967;28;20017;-74
2021/11/16 07:47:52;;;;;;;16.95;12.77;;;;;;;10.45;60.43;100810.16;5032990;28;20017;-74
2021/11/16 07:50:20;;;;;;;17.67;14.07;;;;;;;10.46;60.22;100818.91;5045746;28;20100;-74
2021/11/16 07:52:47;;;;;;;19.88;14.13;;;;;;;10.13;60.83;100757.72;5043374;28;20401;-74
2021/11/16 07:55:19;;;;;;;17.58;14.75;;;;;;;10.54;61.04;100819.00;5049448;28;20439;-74
2021/11/16 07:57:45;;;;;;;20.20;16.05;;;;;;;10.52;60.90;100818.31;5050360;28;20016;-74
2021/11/16 08:00:23;;;;;;;24.02;17.48;;;;;;;10.17;60.37;100785.47;5050356;28;20029;-74
2021/11/16 08:02:55;;;;;;;26.02;19.02;;;;;;;10.30;60.60;100801.00;5044681;28;20101;-75
2021/11/16 08:05:36;;;;;;;21.63;17.27;;;;;;;10.41;60.63;100813.22;5030932;28;20494;-74
2021/11/16 08:10:48;;;;;;;23.70;17.60;;;;;;;10.42;61.09;100809.59;5035200;28;20025;-74
2021/11/16 08:13:16;;;;;;;21.48;16.48;;;;;;;10.31;61.38;100778.09;5050626;28;20052;-74
2021/11/16 08:15:44;;;;;;;23.50;16.77;;;;;;;9.84;61.15;100709.50;5050209;28;20032;-74
2021/11/16 08:18:14;;;;;;;24.33;16.77;;;;;;;10.46;61.58;100818.91;5030419;28;20474;-74
2021/11/16 08:20:43;;;;;;;21.58;16.13;;;;;;;10.42;61.38;100805.16;5029577;28;20051;-74
2021/11/16 08:23:09;;;;;;;25.77;18.77;;;;;;;10.20;61.33;100773.81;5063202;28;20083;-74
2021/11/16 08:25:36;;;;;;;28.25;18.63;;;;;;;10.43;61.03;100795.44;5052574;28;20041;-74
2021/11/16 08:28:04;;;;;;;23.52;16.60;;;;;;;10.22;61.12;100781.59;5032160;28;20036;-74
2021/11/16 08:30:35;;;;;;;21.88;16.45;;;;;;;10.52;60.92;100801.63;5046093;28;20021;-74
2021/11/16 08:33:01;;;;;;;27.38;16.58;;;;;;;10.43;61.19;100782.22;5048023;28;20028;-74
2021/11/16 08:35:27;;;;;;;19.67;14.80;;;;;;;10.67;61.41;100811.56;5049963;28;20053;-74
2021/11/16 08:37:56;;;;;;;22.67;16.48;;;;;;;10.73;61.08;100808.31;5047756;28;20101;-74
2021/11/16 08:40:25;;;;;;;22.45;16.98;;;;;;;10.77;61.29;100809.69;5050287;28;20414;-74
2021/11/16 08:42:53;;;;;;;23.10;17.55;;;;;;;10.81;61.13;100815.50;5050144;28;20017;-74
2021/11/16 08:45:25;;;;;;;19.42;15.15;;;;;;;10.61;61.25;100776.97;5050061;28;20021;-74
2021/11/16 08:48:04;;;;;;;27.30;18.92;;;;;;;10.79;61.64;100809.53;5049257;28;20021;-74
2021/11/16 08:50:33;;;;;;;21.85;17.80;;;;;;;10.70;61.36;100798.06;5050248;28;20029;-74
2021/11/16 08:53:03;;;;;;;26.33;19.38;;;;;;;10.63;61.40;100764.47;5050465;28;20017;-74
2021/11/16 08:55:33;;;;;;;22.38;17.27;;;;;;;10.53;61.58;100750.50;5051768;28;20413;-74
2021/11/16 08:58:00;;;;;;;26.10;18.42;;;;;;;10.96;61.30;100799.97;5020060;28;20021;-74
2021/11/16 09:00:34;;;;;;;26.90;20.88;;;;;;;10.75;61.46;100761.47;5053770;28;20180;-73
2021/11/16 09:03:12;;;;;;;20.88;16.48;;;;;;;11.02;61.75;100800.22;5035748;28;20522;-74
2021/11/16 09:05:49;;;;;;;24.70;18.10;;;;;;;11.10;61.50;100810.03;5033963;28;20030;-74
2021/11/16 09:08:21;;;;;;;26.58;18.77;;;;;;;10.86;61.16;100744.56;5045365;28;20058;-74
2021/11/16 09:10:47;;;;;;;;;;;;;;;11.13;61.76;100789.41;5053956;28;20048;-74
2021/11/16 09:13:15;;;;;;;20.48;17.88;;;;;;;10.78;60.90;100718.06;5053678;28;19909;-74
2021/11/16 09:15:52;;;;;;;26.85;18.95;;;;;;;11.30;61.26;100779.00;5032710;28;20029;-73
2021/11/16 09:18:22;;;;;;;29.20;22.75;;;;;;;11.33;61.14;100773.41;5050202;28;20039;-74
2021/11/16 09:21:17;;;;;;;28.38;20.25;;;;;;;11.39;61.33;100784.22;5052677;28;20048;-73
2021/11/16 09:23:52;;;;;;;26.27;19.48;;;;;;;11.50;60.55;100779.66;5052581;28;20417;-74
2021/11/16 09:29:01;;;;;;;31.88;20.58;;;;;;;11.29;60.44;100709.44;5052085;28;20025;-74
2021/11/16 09:31:30;;;;;;;29.58;19.92;;;;;;;11.71;60.95;100767.75;5051164;28;20031;-74
2021/11/16 09:34:19;;;;;;;28.13;19.00;;;;;;;11.73;61.01;100760.50;5050804;28;20124;-74
2021/11/16 09:37:16;;;;;;;28.02;19.38;;;;;;;11.72;60.68;100756.19;5038813;28;20033;-74
2021/11/16 09:39:45;;;;;;;31.95;20.10;;;;;;;11.75;60.63;100747.09;5019489;28;20061;-74
2021/11/16 09:42:20;;;;;;;30.00;20.63;;;;;;;11.80;60.30;100750.16;5050854;28;20464;-74
2021/11/16 09:44:48;;;;;;;28.63;20.23;;;;;;;11.52;60.64;100714.22;5050220;28;20016;-73
2021/11/16 09:47:26;;;;;;;29.42;21.17;;;;;;;11.74;60.62;100756.03;5050292;28;20035;-74
2021/11/16 09:49:51;;;;;;;27.27;19.67;;;;;;;11.74;60.83;100748.91;5049207;28;20104;-74
2021/11/16 09:52:21;;;;;;;27.15;19.70;;;;;;;11.84;60.50;100758.59;5034136;28;20107;-74
2021/11/16 09:54:49;;;;;;;32.95;23.05;;;;;;;11.85;60.83;100749.66;5050044;28;20033;-74
2021/11/16 09:57:15;;;;;;;32.33;22.13;;;;;;;11.87;60.78;100739.75;5051657;28;20029;-74
2021/11/16 09:59:43;;;;;;;27.85;20.75;;;;;;;11.91;61.15;100735.84;5049868;28;20021;-74
2021/11/16 10:02:16;;;;;;;30.77;21.13;;;;;;;11.78;60.51;100713.25;5051405;28;20032;-74
2021/11/16 10:04:48;;;;;;;33.35;22.40;;;;;;;11.60;60.59;100664.00;5037087;28;20547;-74
2021/11/16 10:07:14;;;;;;;33.53;20.85;;;;;;;11.65;60.68;100669.66;5030797;28;20036;-74
2021/11/16 10:09:42;;;;;;;29.40;18.67;;;;;;;11.89;60.76;100717.47;5049875;28;20028;-74
2021/11/16 10:12:09;;;;;;;25.92;18.52;;;;;;;11.98;60.78;100718.34;5049670;28;20119;-74
2021/11/16 10:14:35;;;;;;;29.83;21.00;;;;;;;12.02;60.72;100717.88;5050576;28;20028;-74
2021/11/16 10:17:00;;;;;;;27.63;19.63;;;;;;;12.11;60.95;100713.44;5051132;28;20021;-74
2021/11/16 10:19:26;;;;;;;25.23;17.45;;;;;;;11.84;60.34;100663.34;5051310;28;20082;-74
2021/11/16 10:21:51;;;;;;;31.65;21.52;;;;;;;12.19;60.58;100712.66;5050615;28;20086;-74
2021/11/16 10:24:36;;;;;;;26.23;18.55;;;;;;;12.10;60.60;100685.31;5047754;28;20025;-74
2021/11/16 10:27:27;;;;;;;23.30;18.90;;;;;;;12.32;60.55;100697.13;5045114;28;20024;-74
2021/11/16 10:30:05;;;;;;;23.92;16.58;;;;;;;12.43;60.12;100696.81;5040247;28;20045;-74
2021/11/16 10:32:31;;;;;;;22.75;17.15;;;;;;;12.43;59.69;100694.19;5050904;28;20526;-74
2021/11/16 10:35:26;;;;;;;24.15;17.70;;;;;;;12.39;60.21;100691.03;5053379;28;20064;-74
2021/11/16 10:37:55;;;;;;;23.75;18.80;;;;;;;11.99;60.37;100624.72;5032451;28;20044;-74
2021/11/16 10:40:24;;;;;;;23.48;17.35;;;;;;;12.25;60.18;100674.94;5049638;28;20036;-74
2021/11/16 10:42:58;;;;;;;26.77;19.00;;;;;;;12.02;60.34;100638.47;5045506;28;20032;-75
2021/11/16 10:45:30;;;;;;;25.85;16.85;;;;;;;12.26;60.46;100673.94;5049065;28;20047;-74
2021/11/16 10:48:00;;;;;;;26.15;18.20;;;;;;;12.02;60.43;100624.41;5045917;28;20614;-74
2021/11/16 10:50:29;;;;;;;22.77;16.63;;;;;;;12.00;60.27;100615.78;5047155;28;20067;-74
2021/11/16 10:53:03;;;;;;;27.58;18.27;;;;;;;12.26;60.01;100652.75;5045478;28;22378;-74
2021/11/16 10:55:49;;;;;;;30.00;21.35;;;;;;;12.46;60.14;100677.97;5047279;28;20053;-74
2021/11/16 10:58:18;;;;;;;28.65;21.27;;;;;;;12.44;60.68;100682.59;5049010;28;20029;-74
2021/11/16 11:00:49;;;;;;;23.40;16.95;;;;;;;12.40;60.13;100674.13;5050833;28;20020;-73
2021/11/16 11:03:25;;;;;;;26.52;16.95;;;;;;;12.27;60.49;100668.47;5048550;28;20099;-74
2021/11/16 11:05:59;;;;;;;36.78;26.08;;;;;;;12.21;60.92;100671.78;5045500;28;20031;-73
2021/11/16 11:08:49;;;;;;;34.25;26.25;;;;;;;11.74;60.93;100594.63;5049311;28;20563;-74
2021/11/16 11:11:21;;;;;;;24.77;18.02;;;;;;;12.04;61.00;100654.19;5050633;28;20041;-74
2021/11/16 11:13:53;;;;;;;24.85;16.90;;;;;;;11.88;61.10;100627.63;5049920;28;20033;-73
2021/11/16 11:16:19;;;;;;;;;;;;;;;12.00;61.07;100648.38;5032016;28;20033;-73
2021/11/16 11:18:48;;;;;;;19.17;14.13;;;;;;;11.52;60.76;100552.91;5023691;28;20385;-74
2021/11/16 11:21:38;;;;;;;22.25;15.15;;;;;;;12.19;60.36;100649.94;5046150;28;20033;-73
2021/11/16 11:24:14;;;;;;;16.55;13.20;;;;;;;12.08;60.43;100611.34;5045897;28;20036;-79
2021/11/16 11:26:50;;;;;;;19.60;14.05;;;;;;;11.82;60.31;100540.94;5050919;28;20086;-78
2021/11/16 11:29:37;;;;;;;18.92;13.25;;;;;;;12.47;60.09;100626.63;5048546;28;20661;-78
2021/11/16 11:32:11;;;;;;;18.73;13.40;;;;;;;12.26;60.18;100590.03;5049506;28;20085;-79
2021/11/16 11:35:08;;;;;;;16.08;12.40;;;;;;;12.20;60.45;100585.38;5045689;28;20048;-79
2021/11/16 11:37:36;;;;;;;19.33;12.27;;;;;;;12.53;60.12;100633.94;5029173;28;20460;-80
2021/11/16 11:40:12;;;;;;;15.95;13.48;;;;;;;12.14;60.35;100591.34;5031746;28;20071;-80